首页
METAR-TAF:

METAR-TAF

机场 :

安伯利皇家空軍基地

伊普斯威奇, 澳大利亚

纬度: 27-38-26S, 经度: 152-42-43E, 海拔: 28米

当前天气观测

该预报发布于28分钟前的00:30 UTC
风速3节,风向南转西南
温度 21°C
湿度 60%
气压 1022 hPa
能见度10公里或以上
散云层高于6800英尺
阴天层高于8400英尺

METAR: YAMB 310030Z AUTO 20003KT 9999 // SCT068 OVC084 21/13 Q1022

时间: 10:58 (00:58 UTC)

预报

该预报发布于2小时和13分钟前的22:45 UTC
预报有效从31日的 00点(UTC)到 31日的 18点(UTC)
风速3节,风向多变
能见度10公里或以上
少量云层高于3000英尺
从 31日的 0500点(UTC)
风速10节,风向东北
能见度10公里或以上
散云层高于3500英尺
从 31日的 0900点(UTC)
风速9节,风向多变
能见度10公里或以上
少量云层高于2000英尺
散云层高于4000英尺
几率 30%
从 31日的 15点(UTC)到 31日的 18点(UTC)
能見度: 0500

TAF: YAMB 302245Z 3100/3118 VRB03KT 9999 FEW030 FM310500 04010KT 9999 SCT035 FM310900 VRB09KT 9999 FEW020 SCT040 PROB30 3115/3118 0500 FG

超过4000个机场的气象观测和天气预报(METAR&TAF报告)。

可查询的气象台以黄色和红色小点在地图上表示。

将鼠标移到小点上方,可查看气象台名称。

然后点击查看天气观测和预报。

如需切换地图:点击带黑十字的绿色按钮放大地图;点击带横线的绿色按钮缩小地图;或者点击绿色箭头查看邻近地区的地图。


METAR-TAF: